createdAt,value
2022-12-19T00:01:16.458Z,98157.78
2022-12-19T00:02:18.393Z,98156.72
2022-12-19T00:03:20.452Z,98159.94
2022-12-19T00:04:22.286Z,98160.81
2022-12-19T00:05:24.048Z,98164.22
2022-12-19T00:06:28.958Z,98167.41
2022-12-19T00:07:30.718Z,98174.91
2022-12-19T00:08:34.223Z,98169.75
2022-12-19T00:09:36.020Z,98163.63
2022-12-19T00:10:37.756Z,98168.66
2022-12-19T00:11:40.368Z,98168.56
2022-12-19T00:12:42.146Z,98173.03
2022-12-19T00:13:44.207Z,98172.19
2022-12-19T00:14:47.218Z,98164.53
2022-12-19T00:15:48.991Z,98157.78
2022-12-19T00:16:50.812Z,98171.44
2022-12-19T00:17:53.057Z,98169.88
2022-12-19T00:18:55.879Z,98158.59
2022-12-19T00:19:57.687Z,98162.97
2022-12-19T00:21:02.188Z,98156.78
2022-12-19T00:22:08.276Z,98159.13
2022-12-19T00:23:12.818Z,98150.63
2022-12-19T00:24:20.711Z,98146.38
2022-12-19T00:25:23.626Z,98153.19
2022-12-19T00:26:27.253Z,98143.91
2022-12-19T00:27:29.018Z,98146.78
2022-12-19T00:28:30.806Z,98138.38
2022-12-19T00:29:32.580Z,98140.81
2022-12-19T00:30:34.925Z,98132.38
2022-12-19T00:31:36.985Z,98138.38
2022-12-19T00:32:38.916Z,98135.00
2022-12-19T00:33:43.459Z,98131.47
2022-12-19T00:34:46.227Z,98130.63
2022-12-19T00:35:47.990Z,98135.56
2022-12-19T00:36:49.736Z,98139.19
2022-12-19T00:37:51.489Z,98134.19
2022-12-19T00:38:54.820Z,98133.28
2022-12-19T00:39:56.648Z,98132.44
2022-12-19T00:41:07.617Z,98122.56
2022-12-19T00:42:09.363Z,98126.84
2022-12-19T00:43:11.110Z,98122.41
2022-12-19T00:44:13.890Z,98131.81
2022-12-19T00:45:17.308Z,98128.34
2022-12-19T00:46:19.239Z,98129.31
2022-12-19T00:47:20.971Z,98133.34
2022-12-19T00:48:22.904Z,98125.03
2022-12-19T00:49:24.718Z,98124.22
2022-12-19T00:50:26.609Z,98126.03
2022-12-19T00:51:29.238Z,98125.22
2022-12-19T00:52:31.013Z,98124.47
2022-12-19T00:53:34.976Z,98119.28
2022-12-19T00:54:36.824Z,98123.63
2022-12-19T00:55:39.350Z,98119.19
2022-12-19T00:56:41.126Z,98118.94
2022-12-19T00:57:42.938Z,98115.50
2022-12-19T00:58:47.011Z,98109.41
2022-12-19T00:59:49.268Z,98109.25
2022-12-19T01:00:51.117Z,98112.56
2022-12-19T01:01:53.053Z,98107.19
2022-12-19T01:02:54.980Z,98113.28
2022-12-19T01:04:27.341Z,98108.09
2022-12-19T01:05:20.998Z,98108.59
2022-12-19T01:06:22.966Z,98110.22
2022-12-19T01:07:25.153Z,98111.69
2022-12-19T01:08:27.096Z,98103.97
2022-12-19T01:09:29.378Z,98102.16
2022-12-19T01:10:31.160Z,98096.78
2022-12-19T01:11:51.591Z,98100.34
2022-12-19T01:12:53.372Z,98095.31
2022-12-19T01:13:55.173Z,98094.41
2022-12-19T01:15:04.568Z,98093.03
2022-12-19T01:16:08.492Z,98093.28
2022-12-19T01:17:10.476Z,98088.19
2022-12-19T01:18:12.541Z,98089.06
2022-12-19T01:19:15.498Z,98088.19
2022-12-19T01:20:21.365Z,98076.50
2022-12-19T01:21:31.603Z,98081.59
2022-12-19T01:22:33.449Z,98088.19
2022-12-19T01:23:36.195Z,98097.47
2022-12-19T01:24:37.968Z,98085.44
2022-12-19T01:25:40.176Z,98090.38
2022-12-19T01:26:46.442Z,98088.38
2022-12-19T01:27:48.235Z,98077.09
2022-12-19T01:28:50.097Z,98078.75
2022-12-19T01:29:53.019Z,98085.41
2022-12-19T01:30:55.256Z,98080.50
2022-12-19T01:31:57.100Z,98074.56
2022-12-19T01:32:59.544Z,98070.53
2022-12-19T01:34:01.430Z,98076.28
2022-12-19T01:35:03.749Z,98068.56
2022-12-19T01:36:07.960Z,98069.44
2022-12-19T01:37:09.716Z,98065.44
2022-12-19T01:38:15.594Z,98067.97
2022-12-19T01:39:17.380Z,98057.69
2022-12-19T01:40:20.216Z,98054.31
2022-12-19T01:41:22.036Z,98055.06
2022-12-19T01:42:24.281Z,98054.13
2022-12-19T01:43:28.925Z,98053.09
2022-12-19T01:44:32.051Z,98061.47
2022-12-19T01:45:36.681Z,98049.44
2022-12-19T01:46:52.087Z,98044.34
2022-12-19T01:48:01.557Z,98049.44
2022-12-19T01:49:04.572Z,98050.28
2022-12-19T01:50:06.603Z,98042.53
2022-12-19T01:51:13.312Z,98039.97
2022-12-19T01:52:20.778Z,98042.63
2022-12-19T01:53:28.171Z,98040.06
2022-12-19T01:54:35.124Z,98043.50
2022-12-19T01:55:37.552Z,98038.66
2022-12-19T01:56:40.807Z,98033.31
2022-12-19T01:57:42.690Z,98039.25
2022-12-19T01:58:47.953Z,98029.84
2022-12-19T01:59:52.830Z,98040.72
2022-12-19T02:00:55.134Z,98034.53
2022-12-19T02:02:00.108Z,98036.88
2022-12-19T02:03:28.083Z,98036.00
2022-12-19T02:04:32.005Z,98031.69
2022-12-19T02:05:34.431Z,98038.34
2022-12-19T02:06:36.490Z,98029.97
2022-12-19T02:07:38.914Z,98028.34
2022-12-19T02:08:41.642Z,98023.22
2022-12-19T02:09:47.233Z,98023.84
2022-12-19T02:10:52.519Z,98020.41
2022-12-19T02:11:54.682Z,98026.97
2022-12-19T02:12:56.622Z,98022.59
2022-12-19T02:13:58.483Z,98018.22
2022-12-19T02:15:03.078Z,98029.16
2022-12-19T02:16:16.908Z,98028.91
2022-12-19T02:17:26.965Z,98032.91
2022-12-19T02:18:31.817Z,98022.69
2022-12-19T02:19:48.817Z,98026.72
2022-12-19T02:21:16.785Z,98014.59
2022-12-19T02:22:27.391Z,98022.09
2022-12-19T02:23:56.331Z,98011.94
2022-12-19T02:24:58.163Z,98017.97
2022-12-19T02:25:59.887Z,98014.06
2022-12-19T02:27:15.298Z,98010.13
2022-12-19T02:28:35.527Z,98012.47
2022-12-19T02:29:43.368Z,98019.97
2022-12-19T02:31:15.494Z,98011.50
2022-12-19T02:32:44.622Z,98014.31
2022-12-19T02:33:55.393Z,98009.94
2022-12-19T02:35:24.628Z,98017.41
2022-12-19T02:36:29.284Z,98014.59
2022-12-19T02:37:36.482Z,98011.03
2022-12-19T02:38:47.767Z,98009.03
2022-12-19T02:40:12.644Z,98007.84
2022-12-19T02:41:26.044Z,98016.16
2022-12-19T02:42:32.952Z,98007.50
2022-12-19T02:43:39.060Z,98001.56
2022-12-19T02:44:43.389Z,98012.59
2022-12-19T02:45:46.275Z,98006.69
2022-12-19T02:46:49.171Z,97998.09
2022-12-19T02:47:51.563Z,98004.94
2022-12-19T02:48:53.982Z,98007.41
2022-12-19T02:49:55.934Z,98004.66
2022-12-19T02:50:57.795Z,98005.56
2022-12-19T02:52:09.042Z,98009.03
2022-12-19T02:53:12.280Z,97993.34
2022-12-19T02:54:14.143Z,97994.44
2022-12-19T02:55:18.983Z,97995.34
2022-12-19T02:56:23.293Z,97991.25
2022-12-19T02:57:28.799Z,97980.94
2022-12-19T02:58:39.217Z,97979.84
2022-12-19T02:59:46.695Z,97985.59
2022-12-19T03:01:04.714Z,97985.50
2022-12-19T03:02:12.406Z,97972.63
2022-12-19T03:03:27.849Z,97981.75
2022-12-19T03:04:29.905Z,97980.94
2022-12-19T03:05:31.772Z,97975.81
2022-12-19T03:06:39.635Z,97982.66
2022-12-19T03:08:11.025Z,97969.91
2022-12-19T03:09:24.838Z,97963.78
2022-12-19T03:10:36.385Z,97967.78
2022-12-19T03:11:39.361Z,97972.72
2022-12-19T03:12:46.538Z,97974.44
2022-12-19T03:13:55.050Z,97971.63
2022-12-19T03:14:58.343Z,97970.41
2022-12-19T03:16:00.319Z,97987.31
2022-12-19T03:17:03.456Z,97979.72
2022-12-19T03:18:05.469Z,97982.28
2022-12-19T03:19:12.040Z,97986.38
2022-12-19T03:20:32.752Z,97977.06
2022-12-19T03:21:40.431Z,97977.06
2022-12-19T03:22:42.263Z,97976.97
2022-12-19T03:23:45.022Z,97988.03
2022-12-19T03:24:47.358Z,97978.69
2022-12-19T03:25:52.514Z,97988.84
2022-12-19T03:27:08.982Z,97990.47
2022-12-19T03:28:19.499Z,97982.78
2022-12-19T03:29:21.283Z,97981.72
2022-12-19T03:30:23.487Z,97986.72
2022-12-19T03:31:27.222Z,97980.72
2022-12-19T03:32:30.238Z,97980.78
2022-12-19T03:33:33.393Z,97980.16
2022-12-19T03:34:51.045Z,97986.19
2022-12-19T03:35:53.610Z,97983.63
2022-12-19T03:37:01.631Z,97981.97
2022-12-19T03:38:04.907Z,97981.97
2022-12-19T03:39:09.147Z,97986.94
2022-12-19T03:40:16.294Z,97987.66
2022-12-19T03:41:39.185Z,97992.56
2022-12-19T03:43:00.527Z,97988.16
2022-12-19T03:44:02.531Z,97992.19
2022-12-19T03:45:05.848Z,97986.16
2022-12-19T03:46:23.133Z,97989.44
2022-12-19T03:47:30.506Z,97985.78
2022-12-19T03:48:44.389Z,97991.78
2022-12-19T03:49:46.781Z,97984.25
2022-12-19T03:50:55.034Z,97984.34
2022-12-19T03:52:17.105Z,97978.59
2022-12-19T03:53:37.332Z,97983.69
2022-12-19T03:54:44.474Z,97980.13
2022-12-19T03:55:49.004Z,97976.47
2022-12-19T03:56:56.906Z,97989.97
2022-12-19T03:58:04.038Z,97979.94
2022-12-19T03:59:12.483Z,97982.28
2022-12-19T04:00:16.494Z,97979.00
2022-12-19T04:01:19.587Z,97978.13
2022-12-19T04:02:23.669Z,97979.94
2022-12-19T04:03:26.443Z,97975.84
2022-12-19T04:04:29.019Z,97972.44
2022-12-19T04:05:31.746Z,97988.50
2022-12-19T04:06:34.754Z,97986.06
2022-12-19T04:07:37.419Z,97979.13
2022-12-19T04:08:39.434Z,97984.13
2022-12-19T04:09:42.522Z,97981.56
2022-12-19T04:10:47.713Z,97984.84
2022-12-19T04:11:55.263Z,97977.00
2022-12-19T04:13:12.189Z,97975.16
2022-12-19T04:14:20.325Z,97969.13
2022-12-19T04:15:29.974Z,97977.53
2022-12-19T04:16:52.347Z,97980.06
2022-12-19T04:17:57.810Z,97987.03
2022-12-19T04:19:03.347Z,97991.63
2022-12-19T04:20:08.002Z,97977.91
2022-12-19T04:21:14.181Z,97977.19
2022-12-19T04:22:25.779Z,97972.78
2022-12-19T04:23:31.498Z,97967.50
2022-12-19T04:24:37.964Z,97971.69
2022-12-19T04:25:42.011Z,97957.06
2022-12-19T04:26:46.511Z,97959.44
2022-12-19T04:27:54.000Z,97958.34
2022-12-19T04:28:58.100Z,97960.97
2022-12-19T04:30:01.449Z,97962.72
2022-12-19T04:31:04.394Z,97964.66
2022-12-19T04:32:06.987Z,97970.78
2022-12-19T04:33:08.823Z,97963.19
2022-12-19T04:34:10.803Z,97961.47
2022-12-19T04:35:13.180Z,97957.91
2022-12-19T04:36:15.094Z,97971.28
2022-12-19T04:37:17.022Z,97958.25
2022-12-19T04:38:19.050Z,97955.47
2022-12-19T04:39:20.863Z,97961.44
2022-12-19T04:40:22.698Z,97959.78
2022-12-19T04:41:24.418Z,97958.97
2022-12-19T04:42:26.259Z,97967.44
2022-12-19T04:43:28.137Z,97957.22
2022-12-19T04:44:29.969Z,97958.16
2022-12-19T04:45:32.889Z,97961.44
2022-12-19T04:46:35.447Z,97962.34
2022-12-19T04:47:37.379Z,97968.38
2022-12-19T04:48:39.379Z,97971.75
2022-12-19T04:49:41.285Z,97970.00
2022-12-19T04:50:43.079Z,97967.44
2022-12-19T04:51:44.891Z,97971.84
2022-12-19T04:52:46.739Z,97967.53
2022-12-19T04:53:48.546Z,97971.66
2022-12-19T04:54:50.350Z,97971.66
2022-12-19T04:55:59.910Z,97972.25
2022-12-19T04:57:01.729Z,97973.09
2022-12-19T04:58:06.973Z,97978.31
2022-12-19T04:59:08.879Z,97976.78
2022-12-19T05:00:11.641Z,97967.34
2022-12-19T05:01:14.606Z,97977.50
2022-12-19T05:02:16.618Z,97966.34
2022-12-19T05:03:18.508Z,97973.91
2022-12-19T05:04:20.486Z,97960.09
2022-12-19T05:05:22.348Z,97963.47
2022-12-19T05:06:24.160Z,97979.66
2022-12-19T05:07:25.945Z,97975.38
2022-12-19T05:08:27.726Z,97981.28
2022-12-19T05:09:30.650Z,97978.00
2022-12-19T05:10:32.452Z,97984.97
2022-12-19T05:11:34.249Z,97971.28
2022-12-19T05:12:36.047Z,97979.75
2022-12-19T05:13:38.017Z,97975.44
2022-12-19T05:14:39.937Z,97982.22
2022-12-19T05:15:41.794Z,97978.66
2022-12-19T05:16:43.819Z,97984.47
2022-12-19T05:17:45.635Z,97977.91
2022-12-19T05:18:47.506Z,97978.00
2022-12-19T05:19:49.353Z,97984.78
2022-12-19T05:20:51.187Z,97979.66
2022-12-19T05:21:53.073Z,97983.13
2022-12-19T05:22:54.858Z,97984.88
2022-12-19T05:23:56.964Z,97976.28
2022-12-19T05:24:58.771Z,97972.91
2022-12-19T05:26:01.752Z,97963.59
2022-12-19T05:27:03.545Z,97966.88
2022-12-19T05:28:05.302Z,97968.72
2022-12-19T05:29:07.946Z,97961.22
2022-12-19T05:30:10.156Z,97968.91
2022-12-19T05:31:13.573Z,97969.44
2022-12-19T05:32:15.407Z,97969.22
2022-12-19T05:33:17.195Z,97968.13
2022-12-19T05:34:19.064Z,97968.03
2022-12-19T05:35:20.872Z,97965.38
2022-12-19T05:36:25.451Z,97967.00
2022-12-19T05:37:30.905Z,97973.84
2022-12-19T05:38:32.711Z,97967.94
2022-12-19T05:39:35.297Z,97974.75
2022-12-19T05:40:37.135Z,97974.75
2022-12-19T05:41:39.415Z,97980.00
2022-12-19T05:42:41.216Z,97980.19
2022-12-19T05:43:43.446Z,97978.44
2022-12-19T05:44:45.260Z,97986.84
2022-12-19T05:45:47.160Z,97981.94
2022-12-19T05:46:48.955Z,97979.28
2022-12-19T05:47:50.850Z,97978.34
2022-12-19T05:48:52.676Z,97977.53
2022-12-19T05:49:54.677Z,97974.25
2022-12-19T05:50:56.454Z,97981.94
2022-12-19T05:51:58.269Z,97984.47
2022-12-19T05:53:01.101Z,97994.41
2022-12-19T05:54:02.938Z,97993.50
2022-12-19T05:55:05.689Z,97990.75
2022-12-19T05:56:09.200Z,97994.22
2022-12-19T05:57:12.302Z,97991.75
2022-12-19T05:58:14.201Z,97995.84
2022-12-19T05:59:16.631Z,97998.31
2022-12-19T06:00:18.664Z,98004.06
2022-12-19T06:01:21.882Z,97997.13
2022-12-19T06:02:24.060Z,97999.59
2022-12-19T06:03:25.959Z,97995.06
2022-12-19T06:04:27.829Z,97999.91
2022-12-19T06:05:31.705Z,97998.97
2022-12-19T06:06:33.547Z,97994.50
2022-12-19T06:07:35.426Z,97993.47
2022-12-19T06:08:37.922Z,97999.41
2022-12-19T06:09:39.753Z,98003.59
2022-12-19T06:10:41.615Z,98006.97
2022-12-19T06:11:43.418Z,98001.06
2022-12-19T06:12:45.323Z,98011.38
2022-12-19T06:13:47.264Z,98009.84
2022-12-19T06:14:49.056Z,98006.16
2022-12-19T06:15:50.890Z,98006.16
2022-12-19T06:16:52.649Z,98006.97
2022-12-19T06:17:54.906Z,98006.16
2022-12-19T06:18:56.732Z,98006.97
2022-12-19T06:19:58.517Z,98002.69
2022-12-19T06:21:01.437Z,98000.84
2022-12-19T06:22:03.161Z,97987.03
2022-12-19T06:23:05.011Z,97999.00
2022-12-19T06:24:06.915Z,97999.63
2022-12-19T06:25:09.771Z,98006.41
2022-12-19T06:26:18.681Z,98002.91
2022-12-19T06:27:21.542Z,97999.63
2022-12-19T06:28:23.925Z,97997.88
2022-12-19T06:29:25.756Z,97990.19
2022-12-19T06:30:27.559Z,97993.69
2022-12-19T06:31:29.432Z,97992.16
2022-12-19T06:32:34.806Z,97990.41
2022-12-19T06:33:39.663Z,97994.72
2022-12-19T06:35:03.603Z,97993.06
2022-12-19T06:36:04.648Z,98002.28
2022-12-19T06:37:08.244Z,98004.66
2022-12-19T06:38:10.326Z,98007.22
2022-12-19T06:39:14.007Z,98001.19
2022-12-19T06:40:36.180Z,98004.75
2022-12-19T06:41:56.596Z,98005.78
2022-12-19T06:42:58.445Z,98006.69
2022-12-19T06:44:00.928Z,97999.22
2022-12-19T06:45:02.816Z,97998.19
2022-12-19T06:46:05.147Z,98000.84
2022-12-19T06:47:06.908Z,97995.72
2022-12-19T06:48:08.648Z,97996.56
2022-12-19T06:49:11.275Z,97996.56
2022-12-19T06:50:14.111Z,97997.38
2022-12-19T06:51:15.905Z,97997.28
2022-12-19T06:52:18.235Z,98000.44
2022-12-19T06:53:20.183Z,97999.53
2022-12-19T06:54:22.141Z,98003.75
2022-12-19T06:55:23.884Z,98001.06
2022-12-19T06:56:25.770Z,98009.38
2022-12-19T06:57:27.573Z,98017.16
2022-12-19T06:58:29.385Z,98008.47
2022-12-19T06:59:32.720Z,98013.78
2022-12-19T07:00:37.434Z,98010.31
2022-12-19T07:01:39.451Z,98013.59
2022-12-19T07:02:46.040Z,98023.81
2022-12-19T07:03:48.951Z,98036.50
2022-12-19T07:04:52.743Z,98032.22
2022-12-19T07:05:54.699Z,98040.63
2022-12-19T07:06:58.714Z,98044.72
2022-12-19T07:08:00.857Z,98051.38
2022-12-19T07:09:02.736Z,98059.06
2022-12-19T07:10:05.324Z,98055.88
2022-12-19T07:11:07.162Z,98057.63
2022-12-19T07:12:09.265Z,98065.13
2022-12-19T07:13:11.062Z,98060.59
2022-12-19T07:14:12.910Z,98069.72
2022-12-19T07:15:14.851Z,98059.47
2022-12-19T07:16:16.742Z,98059.59
2022-12-19T07:17:19.545Z,98062.25
2022-12-19T07:18:21.346Z,98063.16
2022-12-19T07:19:23.198Z,98068.00
2022-12-19T07:20:25.097Z,98072.91
2022-12-19T07:21:27.362Z,98075.38
2022-12-19T07:22:31.525Z,98075.28
2022-12-19T07:23:34.269Z,98072.00
2022-12-19T07:24:36.798Z,98073.00
2022-12-19T07:25:39.807Z,98073.84
2022-12-19T07:26:42.763Z,98069.72
2022-12-19T07:27:44.994Z,98076.41
2022-12-19T07:28:46.916Z,98078.97
2022-12-19T07:29:48.887Z,98079.88
2022-12-19T07:30:50.650Z,98086.66
2022-12-19T07:31:52.565Z,98087.38
2022-12-19T07:32:54.435Z,98087.38
2022-12-19T07:33:56.344Z,98088.81
2022-12-19T07:34:58.039Z,98092.00
2022-12-19T07:35:59.829Z,98089.22
2022-12-19T07:37:01.602Z,98102.84
2022-12-19T07:38:04.559Z,98105.22
2022-12-19T07:39:06.510Z,98108.50
2022-12-19T07:40:08.549Z,98118.75
2022-12-19T07:41:10.391Z,98115.47
2022-12-19T07:42:12.190Z,98114.44
2022-12-19T07:43:14.033Z,98127.63
2022-12-19T07:44:17.864Z,98122.59
2022-12-19T07:45:20.052Z,98127.91
2022-12-19T07:46:22.315Z,98125.47
2022-12-19T07:47:24.156Z,98128.91
2022-12-19T07:48:26.033Z,98141.81
2022-12-19T07:49:27.778Z,98140.50
2022-12-19T07:50:30.389Z,98144.69
2022-12-19T07:51:32.376Z,98148.91
2022-12-19T07:52:34.156Z,98152.91
2022-12-19T07:53:36.036Z,98149.94
2022-12-19T07:54:37.812Z,98160.72
2022-12-19T07:55:39.529Z,98162.38
2022-12-19T07:56:41.406Z,98166.47
2022-12-19T07:57:43.189Z,98167.50
2022-12-19T07:58:45.101Z,98167.56
2022-12-19T07:59:47.029Z,98177.00
2022-12-19T08:00:56.457Z,98178.47
2022-12-19T08:01:58.433Z,98176.53
2022-12-19T08:03:01.512Z,98171.28
2022-12-19T08:04:03.826Z,98176.63
2022-12-19T08:05:06.215Z,98185.13
2022-12-19T08:06:08.111Z,98181.84
2022-12-19T08:07:09.919Z,98189.59
2022-12-19T08:08:12.150Z,98189.59
2022-12-19T08:09:18.914Z,98187.25
2022-12-19T08:10:26.069Z,98194.09
2022-12-19T08:11:29.691Z,98205.06
2022-12-19T08:12:33.673Z,98209.91
2022-12-19T08:13:39.607Z,98211.53
2022-12-19T08:14:42.887Z,98203.84
2022-12-19T08:15:45.887Z,98207.28
2022-12-19T08:17:18.622Z,98211.38
2022-12-19T08:18:09.347Z,98204.19
2022-12-19T08:19:11.316Z,98206.47
2022-12-19T08:20:13.771Z,98195.22
2022-12-19T08:21:15.647Z,98195.00
2022-12-19T08:22:17.408Z,98195.00
2022-12-19T08:23:19.373Z,98200.03
2022-12-19T08:24:21.145Z,98205.88
2022-12-19T08:25:23.036Z,98205.78
2022-12-19T08:26:29.118Z,98214.38
2022-12-19T08:27:35.157Z,98205.06
2022-12-19T08:28:37.558Z,98207.63
2022-12-19T08:29:39.433Z,98211.94
2022-12-19T08:30:41.905Z,98209.38
2022-12-19T08:31:43.875Z,98220.34
2022-12-19T08:32:46.074Z,98218.91
2022-12-19T08:33:48.035Z,98216.34
2022-12-19T08:34:50.366Z,98211.22
2022-12-19T08:35:52.951Z,98217.16
2022-12-19T08:36:54.742Z,98211.94
2022-12-19T08:37:56.531Z,98219.50
2022-12-19T08:38:58.388Z,98218.59
2022-12-19T08:40:01.459Z,98222.78
2022-12-19T08:41:03.552Z,98221.88
2022-12-19T08:42:05.363Z,98223.34
2022-12-19T08:43:07.115Z,98232.66
2022-12-19T08:44:11.456Z,98224.97
2022-12-19T08:45:13.258Z,98225.81
2022-12-19T08:46:15.197Z,98229.91
2022-12-19T08:47:17.022Z,98225.91
2022-12-19T08:48:18.970Z,98224.16
2022-12-19T08:49:20.859Z,98220.06
2022-12-19T08:50:22.659Z,98226.28
2022-12-19T08:51:24.729Z,98227.19
2022-12-19T08:52:26.520Z,98215.31
2022-12-19T08:53:29.816Z,98222.78
2022-12-19T08:54:31.655Z,98217.78
2022-12-19T08:55:35.623Z,98219.63
2022-12-19T08:56:37.494Z,98225.75
2022-12-19T08:57:48.615Z,98218.28
2022-12-19T08:58:56.341Z,98209.06
2022-12-19T08:59:58.118Z,98215.88
2022-12-19T09:01:05.302Z,98221.00
2022-12-19T09:02:07.977Z,98220.91
2022-12-19T09:03:09.873Z,98219.28
2022-12-19T09:05:02.835Z,98222.47
2022-12-19T09:06:01.224Z,98219.72
2022-12-19T09:06:57.678Z,98216.94
2022-12-19T09:07:59.484Z,98215.84
2022-12-19T09:09:01.428Z,98219.66
2022-12-19T09:10:03.668Z,98222.75
2022-12-19T09:11:09.883Z,98222.94
2022-12-19T09:12:12.666Z,98222.13
2022-12-19T09:13:14.523Z,98219.66
2022-12-19T09:14:21.429Z,98224.06
2022-12-19T09:15:23.636Z,98224.44
2022-12-19T09:16:26.865Z,98215.31
2022-12-19T09:17:28.742Z,98217.16
2022-12-19T09:18:32.406Z,98217.97
2022-12-19T09:19:34.230Z,98213.47
2022-12-19T09:20:36.080Z,98210.91
2022-12-19T09:21:37.891Z,98205.50
2022-12-19T09:22:39.604Z,98198.97
2022-12-19T09:23:43.051Z,98194.88
2022-12-19T09:24:47.926Z,98192.63
2022-12-19T09:25:49.805Z,98194.81
2022-12-19T09:26:51.597Z,98192.53
2022-12-19T09:28:26.438Z,98185.88
2022-12-19T09:29:20.570Z,98178.50
2022-12-19T09:30:23.390Z,98176.22
2022-12-19T09:31:25.758Z,98170.91
2022-12-19T09:32:27.640Z,98173.88
2022-12-19T09:33:29.793Z,98168.66
2022-12-19T09:34:37.034Z,98173.34
2022-12-19T09:35:40.452Z,98164.28
2022-12-19T09:36:42.257Z,98158.75
2022-12-19T09:37:44.023Z,98160.59
2022-12-19T09:38:46.173Z,98156.41
2022-12-19T09:39:50.034Z,98153.84
2022-12-19T09:41:00.977Z,98165.41
2022-12-19T09:42:02.839Z,98154.03
2022-12-19T09:43:11.124Z,98145.19
2022-12-19T09:44:12.972Z,98147.19
2022-12-19T09:45:31.302Z,98147.69
2022-12-19T09:46:44.218Z,98137.00
2022-12-19T09:47:49.211Z,98135.94
2022-12-19T09:48:55.199Z,98132.56
2022-12-19T09:49:58.011Z,98128.97
2022-12-19T09:51:18.097Z,98136.56
2022-12-19T09:52:22.630Z,98131.31
2022-12-19T09:53:33.497Z,98114.75
2022-12-19T09:54:37.349Z,98114.44
2022-12-19T09:55:41.661Z,98111.38
2022-12-19T09:56:46.296Z,98112.81
2022-12-19T09:58:00.351Z,98100.88
2022-12-19T09:59:31.736Z,98102.41
2022-12-19T10:00:44.860Z,98103.09
2022-12-19T10:01:54.387Z,98102.09
2022-12-19T10:03:22.621Z,98105.13
2022-12-19T10:04:26.869Z,98102.47
2022-12-19T10:06:00.421Z,98105.13
2022-12-19T10:07:21.261Z,98101.66
2022-12-19T10:08:17.948Z,98102.34
2022-12-19T10:11:40.853Z,98097.91
2022-12-19T10:12:38.461Z,98091.13
2022-12-19T10:12:45.483Z,98099.53
2022-12-19T10:13:35.707Z,98094.19
2022-12-19T10:14:46.773Z,98082.06
2022-12-19T10:15:59.050Z,98079.38
2022-12-19T10:17:24.190Z,98080.78
2022-12-19T10:18:29.510Z,98078.69
2022-12-19T10:19:38.717Z,98070.88
2022-12-19T10:20:42.828Z,98075.22
2022-12-19T10:22:18.165Z,98072.50
2022-12-19T10:23:20.055Z,98070.63
2022-12-19T10:24:34.804Z,98068.78
2022-12-19T10:25:59.936Z,98058.63
2022-12-19T10:27:05.505Z,98059.53
2022-12-19T10:28:07.288Z,98055.91
2022-12-19T10:29:12.054Z,98055.00
2022-12-19T10:30:15.460Z,98053.25
2022-12-19T10:31:21.552Z,98046.13
2022-12-19T10:32:41.120Z,98047.75
2022-12-19T10:33:47.322Z,98037.47
2022-12-19T10:34:51.117Z,98031.31
2022-12-19T10:35:54.485Z,98034.69
2022-12-19T10:37:28.708Z,98032.22
2022-12-19T10:38:30.033Z,98032.13
2022-12-19T10:39:36.416Z,98031.06
2022-12-19T10:40:58.543Z,98039.47
2022-12-19T10:42:08.520Z,98033.31
2022-12-19T10:43:22.898Z,98027.22
2022-12-19T10:44:35.374Z,98034.94
2022-12-19T10:45:50.347Z,98032.34
2022-12-19T10:46:53.581Z,98040.78
2022-12-19T10:47:57.065Z,98034.72
2022-12-19T10:49:02.727Z,98026.03
2022-12-19T10:50:09.497Z,98030.03
2022-12-19T10:51:19.415Z,98029.91
2022-12-19T10:52:39.701Z,98023.00
2022-12-19T10:53:41.526Z,98022.09
2022-12-19T10:54:48.846Z,98024.31
2022-12-19T10:55:51.877Z,98021.63
2022-12-19T10:56:53.783Z,98018.00
2022-12-19T10:57:58.468Z,98023.03
2022-12-19T10:59:01.611Z,98019.50
2022-12-19T11:00:15.953Z,98017.63
2022-12-19T11:01:26.166Z,98020.91
2022-12-19T11:02:37.305Z,98024.19
2022-12-19T11:03:42.504Z,98022.31
2022-12-19T11:04:47.723Z,98024.66
2022-12-19T11:05:57.814Z,98025.34
2022-12-19T11:07:03.780Z,98019.16
2022-12-19T11:08:10.053Z,98016.59
2022-12-19T11:09:18.341Z,98016.47
2022-12-19T11:12:20.511Z,98026.88
2022-12-19T11:15:27.100Z,98019.75
2022-12-19T11:17:56.483Z,98016.69
2022-12-19T11:18:10.777Z,98022.19
2022-12-19T11:18:32.532Z,98016.00
2022-12-19T11:23:50.585Z,98018.19
2022-12-19T11:29:18.666Z,98023.94
2022-12-19T11:29:39.845Z,98022.16
2022-12-19T11:29:54.354Z,98021.09
2022-12-19T11:30:08.659Z,98011.28
2022-12-19T11:30:35.712Z,98007.53
2022-12-19T11:30:35.951Z,98013.16
2022-12-19T11:30:43.364Z,98011.13
2022-12-19T11:31:51.081Z,98010.91
2022-12-19T11:32:36.662Z,98003.50
2022-12-19T11:33:26.034Z,98000.56
2022-12-19T11:34:29.478Z,98000.34
2022-12-19T11:35:36.555Z,98007.00
2022-12-19T11:36:48.854Z,98003.22
2022-12-19T11:37:55.345Z,98005.56
2022-12-19T11:38:57.870Z,98001.00
2022-12-19T11:40:05.195Z,98001.56
2022-12-19T11:41:30.213Z,98001.19
2022-12-19T11:42:44.446Z,98005.03
2022-12-19T11:43:59.148Z,97999.63
2022-12-19T11:45:01.547Z,97997.75
2022-12-19T11:46:03.331Z,98006.88
2022-12-19T11:47:25.551Z,97999.72
2022-12-19T11:48:30.218Z,98001.09
2022-12-19T11:49:43.981Z,98000.84
2022-12-19T11:51:00.512Z,98006.56
2022-12-19T11:52:06.860Z,98003.06
2022-12-19T11:53:19.212Z,98003.75
2022-12-19T11:54:24.450Z,98007.94
2022-12-19T11:55:29.406Z,98002.78
2022-12-19T11:56:31.272Z,98004.44
2022-12-19T11:57:33.233Z,98012.88
2022-12-19T11:58:35.096Z,98003.25
2022-12-19T11:59:38.673Z,98007.72
2022-12-19T12:00:46.434Z,98003.59
2022-12-19T12:02:14.409Z,98005.75
2022-12-19T12:03:27.282Z,98007.06
2022-12-19T12:04:29.159Z,98008.72
2022-12-19T12:05:36.746Z,98003.56
2022-12-19T12:06:45.630Z,98001.69
2022-12-19T12:09:56.052Z,98011.97
2022-12-19T12:12:14.079Z,98008.56
2022-12-19T12:18:36.758Z,98006.56
2022-12-19T12:19:43.202Z,98016.88
2022-12-19T12:24:14.148Z,98016.88
2022-12-19T12:27:03.162Z,98016.19
2022-12-19T12:31:04.353Z,98010.91
2022-12-19T12:31:09.622Z,98013.72
2022-12-19T12:31:13.894Z,98009.25
2022-12-19T12:31:16.752Z,98013.72
2022-12-19T12:31:26.820Z,98007.25
2022-12-19T12:31:29.547Z,98007.94
2022-12-19T12:31:39.144Z,98007.94
2022-12-19T12:31:48.511Z,98008.91
2022-12-19T12:32:03.188Z,98006.19
2022-12-19T12:32:04.829Z,98007.13
2022-12-19T12:35:35.106Z,98003.06
2022-12-19T12:35:38.322Z,98003.38
2022-12-19T12:35:51.342Z,98002.78
2022-12-19T12:38:12.199Z,98010.97
2022-12-19T12:39:24.253Z,98002.78
2022-12-19T12:40:49.129Z,98000.22
2022-12-19T12:42:06.222Z,97995.63
2022-12-19T12:43:26.921Z,97987.78
2022-12-19T12:44:33.298Z,97996.56
2022-12-19T12:45:38.447Z,97999.97
2022-12-19T12:46:42.994Z,97995.53
2022-12-19T12:47:47.056Z,97996.06
2022-12-19T12:48:56.226Z,97997.59
2022-12-19T12:50:01.039Z,97990.66
2022-12-19T12:51:03.613Z,97991.47
2022-12-19T12:52:07.226Z,97987.13
2022-12-19T12:53:11.236Z,97991.34
2022-12-19T12:54:16.243Z,97993.94
2022-12-19T12:55:25.392Z,97984.44
2022-12-19T12:56:27.636Z,97979.97
2022-12-19T12:57:29.967Z,97982.53
2022-12-19T12:58:53.878Z,97983.13
2022-12-19T13:00:14.920Z,97980.41
2022-12-19T13:01:18.251Z,97980.16
2022-12-19T13:02:25.709Z,97984.09
2022-12-19T13:03:29.489Z,97978.59
2022-12-19T13:04:33.573Z,97978.19
2022-12-19T13:05:41.244Z,97972.66